Time;durP1;ratioP1;P1;durP2;ratioP2;P2;SDS_P1;SDS_P2;PMS_P1;PMS_P2;Temp;Humidity;BMP_temperature;BMP_pressure;BME280_temperature;BME280_humidity;BME280_pressure;Samples;Min_cycle;Max_cycle;Signal;HPM_P1;HPM_P2
2023/05/25 00:02:43;;;;;;;5.57;5.07;;;23.30;89.50;;;;;;6003730;29;89065;-67
2023/05/25 00:05:47;;;;;;;6.40;5.45;;;23.30;89.70;;;;;;6013166;29;89369;-67
2023/05/25 00:08:53;;;;;;;5.18;4.70;;;23.30;89.60;;;;;;6007950;29;88775;-66
2023/05/25 00:11:55;;;;;;;5.70;5.20;;;23.30;89.60;;;;;;5999084;29;89356;-66
2023/05/25 00:14:57;;;;;;;5.72;5.20;;;23.30;89.70;;;;;;6014181;29;90227;-67
2023/05/25 00:17:59;;;;;;;6.28;5.78;;;23.30;89.70;;;;;;6021677;29;89063;-67
2023/05/25 00:21:04;;;;;;;6.20;5.53;;;23.30;89.70;;;;;;6013645;29;90372;-67
2023/05/25 00:24:10;;;;;;;5.95;5.35;;;23.30;89.70;;;;;;6013449;29;89117;-67
2023/05/25 00:27:12;;;;;;;5.57;5.07;;;23.30;89.70;;;;;;6011505;29;90064;-67
2023/05/25 00:30:15;;;;;;;6.40;5.80;;;23.30;89.80;;;;;;6007901;29;89163;-67
2023/05/25 00:33:17;;;;;;;6.45;5.88;;;23.30;89.60;;;;;;6002661;29;89036;-66
2023/05/25 00:36:20;;;;;;;6.05;5.50;;;23.30;89.60;;;;;;5992777;29;89089;-66
2023/05/25 00:39:22;;;;;;;7.45;6.35;;;23.30;89.60;;;;;;5991952;29;89181;-66
2023/05/25 00:42:26;;;;;;;6.65;6.03;;;23.30;89.60;;;;;;6002484;29;89046;-67
2023/05/25 00:45:28;;;;;;;6.75;6.15;;;23.30;89.80;;;;;;6014818;28;89547;-67
2023/05/25 00:48:30;;;;;;;6.70;6.10;;;23.30;89.60;;;;;;6018234;29;87470;-67
2023/05/25 00:51:35;;;;;;;6.45;5.88;;;23.30;89.70;;;;;;6017286;29;89071;-67
2023/05/25 00:54:37;;;;;;;6.40;5.80;;;23.30;89.70;;;;;;6018793;29;89410;-66
2023/05/25 00:57:44;;;;;;;6.72;6.13;;;23.30;89.70;;;;;;6026401;29;89965;-67
2023/05/25 01:00:49;;;;;;;6.45;5.85;;;23.30;89.80;;;;;;6028043;29;89171;-66
2023/05/25 01:03:53;;;;;;;6.45;5.82;;;23.30;89.80;;;;;;6036696;29;89108;-66
2023/05/25 01:06:58;;;;;;;6.70;5.97;;;23.30;89.70;;;;;;6035080;29;89217;-66
2023/05/25 01:10:04;;;;;;;6.40;5.82;;;23.30;89.70;;;;;;6015498;29;89418;-66
2023/05/25 01:13:08;;;;;;;6.40;5.80;;;23.30;89.60;;;;;;6014003;29;88412;-66
2023/05/25 01:16:11;;;;;;;6.28;5.68;;;23.30;89.70;;;;;;6015208;29;89189;-66
2023/05/25 01:19:13;;;;;;;6.55;5.95;;;23.30;89.70;;;;;;6015631;29;88386;-67
2023/05/25 01:22:24;;;;;;;6.38;5.78;;;23.30;89.70;;;;;;6034174;29;89296;-67
2023/05/25 01:25:31;;;;;;;6.78;6.18;;;23.30;89.70;;;;;;6003011;29;89073;-66
2023/05/25 01:28:40;;;;;;;7.07;6.47;;;23.20;89.60;;;;;;6022269;29;88948;-67
2023/05/25 01:31:43;;;;;;;6.90;6.22;;;23.30;89.70;;;;;;6025226;29;89076;-66
2023/05/25 01:34:46;;;;;;;6.90;6.30;;;23.30;89.70;;;;;;6018382;29;89126;-67
2023/05/25 01:37:52;;;;;;;7.25;6.45;;;23.20;89.60;;;;;;6018403;29;89267;-67
2023/05/25 01:40:54;;;;;;;7.63;6.88;;;23.20;89.60;;;;;;6023826;29;89067;-67
2023/05/25 01:43:56;;;;;;;6.82;6.22;;;23.30;89.60;;;;;;6026371;29;89040;-67
2023/05/25 01:47:05;;;;;;;7.53;6.80;;;23.30;89.60;;;;;;6010091;29;89176;-66
2023/05/25 01:50:15;;;;;;;7.60;6.90;;;23.20;89.50;;;;;;6019011;29;88426;-67
2023/05/25 01:53:22;;;;;;;7.25;6.65;;;23.30;89.60;;;;;;6018413;29;89068;-67
2023/05/25 01:56:28;;;;;;;7.15;6.55;;;23.30;89.60;;;;;;6005231;29;89517;-66
2023/05/25 01:59:32;;;;;;;7.82;7.03;;;23.20;89.40;;;;;;6017388;29;90083;-67
2023/05/25 02:02:35;;;;;;;7.47;6.78;;;23.20;89.50;;;;;;6016656;29;89216;-67
2023/05/25 02:05:37;;;;;;;8.35;7.47;;;23.20;89.40;;;;;;6027438;29;89231;-67
2023/05/25 02:08:42;;;;;;;7.70;6.93;;;23.20;89.40;;;;;;6010859;29;89183;-67
2023/05/25 02:11:44;;;;;;;7.63;6.93;;;23.20;89.40;;;;;;6011831;29;89194;-67
2023/05/25 02:14:47;;;;;;;7.93;7.18;;;23.20;89.40;;;;;;6025636;29;89102;-67
2023/05/25 02:17:50;;;;;;;8.63;7.82;;;23.30;89.30;;;;;;6014619;29;88967;-67
2023/05/25 02:20:52;;;;;;;8.00;7.25;;;23.30;89.40;;;;;;6016280;29;88565;-67
2023/05/25 02:23:56;;;;;;;8.98;7.95;;;23.20;89.30;;;;;;6016073;29;89020;-67
2023/05/25 02:26:58;;;;;;;8.70;7.90;;;23.20;89.30;;;;;;6006125;29;89093;-67
2023/05/25 02:30:01;;;;;;;8.95;8.07;;;23.20;89.30;;;;;;6020955;29;90057;-67
2023/05/25 02:33:03;;;;;;;8.65;7.82;;;23.20;89.30;;;;;;6009123;29;89087;-67
2023/05/25 02:36:05;;;;;;;8.85;7.95;;;23.20;89.30;;;;;;6010473;29;88461;-67
2023/05/25 02:39:09;;;;;;;8.25;7.45;;;23.20;89.30;;;;;;6007694;29;89155;-67
2023/05/25 02:42:11;;;;;;;9.18;8.38;;;23.20;89.30;;;;;;6010905;29;89048;-67
2023/05/25 02:45:13;;;;;;;8.88;8.05;;;23.20;89.40;;;;;;6010027;29;88191;-67
2023/05/25 02:48:14;;;;;;;8.13;7.43;;;23.20;89.30;;;;;;5989650;29;94173;-67
2023/05/25 02:51:16;;;;;;;9.20;8.30;;;23.20;89.20;;;;;;6010957;29;93581;-67
2023/05/25 02:54:20;;;;;;;8.68;7.88;;;23.20;89.60;;;;;;6003528;29;94187;-67
2023/05/25 02:57:22;;;;;;;9.25;8.45;;;23.20;89.10;;;;;;6002581;29;94204;-67
2023/05/25 03:00:24;;;;;;;9.15;8.35;;;23.20;89.10;;;;;;6008366;29;95052;-67
2023/05/25 03:03:26;;;;;;;9.20;8.40;;;23.20;89.20;;;;;;6009175;29;94144;-67
2023/05/25 03:06:28;;;;;;;9.40;8.50;;;23.20;89.20;;;;;;6001312;29;94296;-67
2023/05/25 03:09:32;;;;;;;9.50;8.60;;;23.20;89.20;;;;;;6001958;29;94033;-67
2023/05/25 03:12:33;;;;;;;9.25;8.40;;;23.20;89.20;;;;;;6002816;29;94475;-67
2023/05/25 03:15:35;;;;;;;9.73;8.93;;;23.20;89.20;;;;;;6009602;29;94172;-67
2023/05/25 03:18:37;;;;;;;9.27;8.48;;;23.20;89.30;;;;;;5999896;29;94133;-67
2023/05/25 03:21:39;;;;;;;9.63;8.77;;;23.20;89.20;;;;;;6012908;29;93535;-67
2023/05/25 03:24:43;;;;;;;9.88;8.90;;;23.20;89.20;;;;;;5995057;29;94578;-66
2023/05/25 03:27:45;;;;;;;9.90;9.00;;;23.20;89.10;;;;;;6009979;29;94139;-66
2023/05/25 03:30:47;;;;;;;9.57;8.68;;;23.20;89.10;;;;;;6018023;29;95156;-66
2023/05/25 03:33:49;;;;;;;9.57;8.73;;;23.20;89.10;;;;;;5998403;29;94125;-66
2023/05/25 03:36:53;;;;;;;9.50;8.60;;;23.20;89.00;;;;;;5998280;29;94175;-66
2023/05/25 03:39:56;;;;;;;9.75;8.85;;;23.20;89.00;;;;;;6019794;29;94246;-66
2023/05/25 03:42:58;;;;;;;9.55;8.65;;;23.20;89.00;;;;;;6002396;29;94188;-67
2023/05/25 03:46:00;;;;;;;10.10;9.02;;;23.20;88.90;;;;;;6012365;29;94140;-66
2023/05/25 03:49:02;;;;;;;9.32;8.45;;;23.20;88.90;;;;;;5998778;29;94226;-66
2023/05/25 03:52:05;;;;;;;8.98;8.18;;;23.10;88.90;;;;;;6016438;29;93682;-66
2023/05/25 03:55:09;;;;;;;10.00;9.00;;;23.20;88.90;;;;;;6010402;29;94182;-66
2023/05/25 03:58:10;;;;;;;9.55;8.75;;;23.10;88.80;;;;;;6010809;29;94588;-66
2023/05/25 04:01:13;;;;;;;9.68;8.70;;;23.10;88.70;;;;;;6012944;29;95142;-66
2023/05/25 04:04:15;;;;;;;10.10;9.10;;;23.20;88.70;;;;;;6005295;29;94181;-67
2023/05/25 04:07:17;;;;;;;9.50;8.60;;;23.20;88.60;;;;;;6011800;29;94190;-67
2023/05/25 04:10:21;;;;;;;9.85;8.90;;;23.10;88.60;;;;;;6011707;29;93355;-66
2023/05/25 04:13:23;;;;;;;9.32;8.43;;;23.10;88.50;;;;;;6013435;29;94826;-66
2023/05/25 04:16:25;;;;;;;9.32;8.40;;;23.10;88.40;;;;;;6002751;29;94043;-66
2023/05/25 04:19:27;;;;;;;9.23;8.32;;;23.10;88.40;;;;;;6003631;29;94146;-67
2023/05/25 04:22:29;;;;;;;9.30;8.40;;;23.10;88.40;;;;;;5997926;29;92307;-67
2023/05/25 04:25:33;;;;;;;9.18;8.27;;;23.10;88.50;;;;;;6010024;29;94520;-66
2023/05/25 04:28:35;;;;;;;8.90;8.10;;;23.10;88.40;;;;;;6021479;29;94289;-65
2023/05/25 04:31:37;;;;;;;9.65;8.65;;;23.10;88.40;;;;;;6019696;29;95098;-65
2023/05/25 04:34:41;;;;;;;9.20;8.30;;;23.10;88.40;;;;;;5999689;29;94205;-65
2023/05/25 04:37:43;;;;;;;9.18;8.27;;;23.10;88.30;;;;;;6000808;29;94434;-65
2023/05/25 04:40:46;;;;;;;9.32;8.40;;;23.10;88.20;;;;;;5993141;29;94667;-65
2023/05/25 04:43:49;;;;;;;8.90;8.05;;;23.10;88.20;;;;;;6010587;29;94102;-65
2023/05/25 04:46:52;;;;;;;9.40;8.45;;;23.10;88.20;;;;;;6009486;29;94132;-65
2023/05/25 04:49:54;;;;;;;9.18;7.53;;;23.10;87.90;;;;;;6005248;29;94258;-65
2023/05/25 04:52:56;;;;;;;7.30;6.60;;;23.10;87.00;;;;;;6006689;29;93345;-65
2023/05/25 04:56:00;;;;;;;7.07;6.28;;;23.10;86.30;;;;;;5998766;29;93318;-65
2023/05/25 04:59:03;;;;;;;8.48;6.30;;;23.10;86.10;;;;;;6008069;29;93074;-65
2023/05/25 05:02:05;;;;;;;6.70;6.00;;;23.10;85.50;;;;;;5998899;29;95130;-65
2023/05/25 05:05:10;;;;;;;8.95;6.97;;;23.10;85.30;;;;;;6000721;29;94137;-65
2023/05/25 05:08:12;;;;;;;9.70;7.40;;;23.10;85.70;;;;;;5998961;29;94113;-65
2023/05/25 05:11:15;;;;;;;8.23;6.85;;;23.10;85.80;;;;;;6011603;29;94539;-65
2023/05/25 05:14:17;;;;;;;10.10;7.00;;;23.10;85.90;;;;;;5993354;29;94146;-67
2023/05/25 05:17:19;;;;;;;7.70;6.90;;;23.10;86.20;;;;;;5989087;29;94179;-65
2023/05/25 05:20:21;;;;;;;7.80;6.50;;;23.10;86.40;;;;;;6012041;29;94167;-65
2023/05/25 05:23:23;;;;;;;8.15;6.68;;;23.10;86.40;;;;;;6013739;29;93513;-65
2023/05/25 05:26:27;;;;;;;8.82;7.05;;;23.10;86.50;;;;;;6034605;29;94297;-65
2023/05/25 05:29:29;;;;;;;8.75;7.15;;;23.10;86.60;;;;;;6001120;29;94542;-65
2023/05/25 05:32:31;;;;;;;9.45;7.53;;;23.10;86.60;;;;;;5987616;29;95499;-65
2023/05/25 05:35:33;;;;;;;7.60;6.80;;;23.10;86.60;;;;;;5995863;29;94579;-65
2023/05/25 05:38:35;;;;;;;7.40;6.68;;;23.10;86.70;;;;;;6005754;29;94120;-65
2023/05/25 05:41:42;;;;;;;9.05;7.00;;;23.10;86.70;;;;;;6027848;29;93067;-65
2023/05/25 05:44:44;;;;;;;8.73;7.00;;;23.10;86.70;;;;;;6013244;29;94497;-65
2023/05/25 05:47:46;;;;;;;7.95;6.55;;;23.10;86.60;;;;;;6013319;29;94177;-65
2023/05/25 05:50:48;;;;;;;7.03;6.20;;;23.10;86.60;;;;;;6008573;29;94120;-65
2023/05/25 05:53:50;;;;;;;7.80;6.82;;;23.10;86.60;;;;;;6014853;29;93385;-65
2023/05/25 05:56:54;;;;;;;7.55;6.75;;;23.10;86.60;;;;;;6004148;29;94160;-65
2023/05/25 05:59:56;;;;;;;9.88;6.95;;;23.10;86.50;;;;;;6021621;29;94303;-65
2023/05/25 06:02:59;;;;;;;7.70;6.25;;;23.10;86.40;;;;;;6008640;29;95093;-66
2023/05/25 06:06:01;;;;;;;7.95;6.63;;;23.10;86.40;;;;;;6001920;29;94157;-66
2023/05/25 06:09:05;;;;;;;8.88;7.00;;;23.10;86.30;;;;;;6013846;29;94227;-65
2023/05/25 06:12:09;;;;;;;8.32;6.40;;;23.10;86.20;;;;;;6002018;29;93113;-65
2023/05/25 06:15:12;;;;;;;6.85;6.05;;;23.10;86.10;;;;;;6025764;29;94208;-65
2023/05/25 06:18:14;;;;;;;7.82;6.40;;;23.10;86.00;;;;;;6013366;29;94193;-65
2023/05/25 06:21:16;;;;;;;6.93;6.13;;;23.10;85.90;;;;;;6014877;29;94126;-65
2023/05/25 06:24:18;;;;;;;6.90;6.20;;;23.10;85.90;;;;;;6008167;29;93498;-66
2023/05/25 06:27:21;;;;;;;8.50;6.03;;;23.10;85.90;;;;;;6006116;29;93254;-66
2023/05/25 06:30:23;;;;;;;6.70;5.93;;;23.10;85.80;;;;;;6017040;29;94284;-65
2023/05/25 06:33:26;;;;;;;7.70;6.25;;;23.10;85.70;;;;;;6031596;29;95116;-65
2023/05/25 06:36:28;;;;;;;8.10;6.10;;;23.10;85.80;;;;;;6001362;29;94500;-65
2023/05/25 06:39:30;;;;;;;6.50;5.85;;;23.10;85.70;;;;;;6024741;29;94136;-65
2023/05/25 06:42:33;;;;;;;7.03;6.10;;;23.10;85.70;;;;;;6023880;29;92958;-66
2023/05/25 06:45:35;;;;;;;7.70;6.50;;;23.10;85.70;;;;;;6012134;29;94093;-66
2023/05/25 06:48:39;;;;;;;6.68;5.97;;;23.10;85.90;;;;;;5990836;29;94111;-66
2023/05/25 06:51:41;;;;;;;7.68;5.90;;;23.10;85.70;;;;;;5997005;29;94460;-66
2023/05/25 06:54:42;;;;;;;6.72;5.65;;;23.10;85.60;;;;;;6018523;29;93385;-66
2023/05/25 06:57:46;;;;;;;7.03;5.70;;;23.10;85.70;;;;;;6006715;29;94174;-66
2023/05/25 07:00:48;;;;;;;7.57;6.00;;;23.10;85.70;;;;;;6017237;29;94185;-65
2023/05/25 07:03:50;;;;;;;6.60;5.95;;;23.10;85.70;;;;;;6003902;29;95113;-66
2023/05/25 07:06:52;;;;;;;6.43;5.35;;;23.10;85.70;;;;;;6000277;29;94181;-66
2023/05/25 07:09:54;;;;;;;6.25;5.65;;;23.10;85.80;;;;;;6012203;29;94368;-65
2023/05/25 07:12:57;;;;;;;6.32;5.45;;;23.10;85.80;;;;;;5997780;29;94164;-65
2023/05/25 07:15:59;;;;;;;7.25;6.22;;;23.10;85.80;;;;;;5991557;29;94430;-65
2023/05/25 07:19:01;;;;;;;8.38;5.60;;;23.10;85.90;;;;;;6011511;29;94153;-65
2023/05/25 07:22:03;;;;;;;6.82;5.65;;;23.10;85.90;;;;;;6010575;29;94401;-66
2023/05/25 07:25:06;;;;;;;6.82;5.82;;;23.10;85.80;;;;;;6000205;29;93377;-66
2023/05/25 07:28:09;;;;;;;7.97;5.97;;;23.10;85.70;;;;;;6005989;29;94719;-66
2023/05/25 07:31:11;;;;;;;6.25;5.65;;;23.10;85.70;;;;;;6007582;29;93370;-66
2023/05/25 07:34:13;;;;;;;6.63;5.32;;;23.10;85.70;;;;;;5994168;29;94974;-66
2023/05/25 07:37:15;;;;;;;5.65;5.15;;;23.10;85.60;;;;;;6009160;29;94252;-66
2023/05/25 07:40:17;;;;;;;6.07;5.45;;;23.10;85.60;;;;;;5999156;29;94191;-66
2023/05/25 07:43:21;;;;;;;6.57;5.32;;;23.10;85.50;;;;;;6011824;29;94582;-66
2023/05/25 07:46:24;;;;;;;8.00;5.22;;;23.10;85.50;;;;;;6009575;29;93470;-66
2023/05/25 07:49:26;;;;;;;6.13;5.25;;;23.10;85.40;;;;;;5995269;29;94056;-66
2023/05/25 07:52:28;;;;;;;8.32;6.00;;;23.10;85.40;;;;;;6002568;29;94096;-66
2023/05/25 07:55:30;;;;;;;6.15;5.40;;;23.10;85.40;;;;;;6024987;29;93412;-66
2023/05/25 07:58:33;;;;;;;5.57;5.05;;;23.10;85.50;;;;;;6024548;29;96452;-66
2023/05/25 08:01:36;;;;;;;5.55;4.97;;;23.10;85.50;;;;;;6001162;29;94100;-65
2023/05/25 08:04:38;;;;;;;5.40;5.00;;;23.10;85.50;;;;;;6001446;29;95142;-66
2023/05/25 08:07:40;;;;;;;8.02;5.40;;;23.10;85.50;;;;;;5996924;29;94204;-66
2023/05/25 08:10:42;;;;;;;6.15;5.20;;;23.10;85.50;;;;;;6003037;29;93015;-66
2023/05/25 08:13:45;;;;;;;5.60;4.85;;;23.10;85.50;;;;;;6006983;29;94133;-66
2023/05/25 08:16:48;;;;;;;5.78;5.15;;;23.10;85.50;;;;;;5990668;29;94221;-65
2023/05/25 08:19:49;;;;;;;6.40;5.07;;;23.10;85.60;;;;;;6000868;29;94120;-66
2023/05/25 08:22:53;;;;;;;6.05;5.13;;;23.10;85.70;;;;;;5997078;29;92989;-66
2023/05/25 08:25:55;;;;;;;5.80;5.13;;;23.10;85.60;;;;;;6001848;29;93344;-65
2023/05/25 08:28:59;;;;;;;5.45;4.95;;;23.10;85.60;;;;;;5996287;29;94137;-66
2023/05/25 08:32:01;;;;;;;5.40;4.90;;;23.10;85.60;;;;;;6011984;29;94059;-65
2023/05/25 08:35:03;;;;;;;6.78;5.30;;;23.10;85.70;;;;;;5993631;29;95071;-66
2023/05/25 08:38:05;;;;;;;5.85;4.97;;;23.10;85.60;;;;;;6004462;29;94489;-65
2023/05/25 08:41:07;;;;;;;6.47;4.93;;;23.10;85.50;;;;;;5994503;29;94090;-65
2023/05/25 08:44:13;;;;;;;7.20;5.05;;;23.10;85.60;;;;;;6008542;29;94387;-66
2023/05/25 08:47:18;;;;;;;6.03;5.07;;;23.10;85.60;;;;;;5997114;29;93041;-65
2023/05/25 08:50:21;;;;;;;6.50;5.25;;;23.10;85.60;;;;;;5999253;29;94214;-65
2023/05/25 08:53:23;;;;;;;5.30;4.80;;;23.10;85.70;;;;;;5998009;29;94120;-66
2023/05/25 08:56:30;;;;;;;5.35;4.85;;;23.10;85.70;;;;;;5999564;29;93288;-66
2023/05/25 08:59:46;;;;;;;5.25;4.75;;;23.10;85.80;;;;;;5991798;29;94072;-66
2023/05/25 09:02:54;;;;;;;5.38;4.88;;;23.10;85.70;;;;;;5998242;29;94210;-65
2023/05/25 09:05:57;;;;;;;5.78;4.75;;;23.10;85.80;;;;;;6008740;29;95461;-66
2023/05/25 09:08:59;;;;;;;5.65;5.00;;;23.10;85.80;;;;;;5989234;29;95517;-65
2023/05/25 09:12:01;;;;;;;5.72;4.82;;;23.10;85.70;;;;;;5998663;29;94104;-66
2023/05/25 09:15:06;;;;;;;5.05;4.60;;;23.10;85.70;;;;;;5992765;29;94228;-66
2023/05/25 09:18:07;;;;;;;5.35;4.85;;;23.10;85.70;;;;;;6004710;29;94177;-65
2023/05/25 09:21:10;;;;;;;5.57;4.80;;;23.10;85.70;;;;;;5998507;29;94980;-66
2023/05/25 09:24:12;;;;;;;5.25;4.75;;;23.10;85.80;;;;;;6014943;29;94227;-65
2023/05/25 09:27:19;;;;;;;5.97;4.80;;;23.10;85.80;;;;;;5998779;29;93423;-66
2023/05/25 09:30:22;;;;;;;5.38;4.88;;;23.10;85.80;;;;;;6008276;29;94134;-66
2023/05/25 09:33:24;;;;;;;5.68;5.07;;;23.10;85.90;;;;;;6000632;29;94137;-66
2023/05/25 09:36:26;;;;;;;5.57;4.97;;;23.10;85.90;;;;;;5994028;29;95145;-66
2023/05/25 09:39:28;;;;;;;5.20;4.70;;;23.10;85.90;;;;;;5992546;29;94190;-66
2023/05/25 09:42:30;;;;;;;5.57;4.60;;;23.10;85.90;;;;;;6009927;29;94478;-66
2023/05/25 09:45:34;;;;;;;6.10;5.20;;;23.10;86.80;;;;;;6015077;29;95357;-66
2023/05/25 09:48:37;;;;;;;5.05;4.65;;;23.10;85.90;;;;;;5992756;29;94184;-66
2023/05/25 09:51:39;;;;;;;5.25;4.75;;;23.10;86.10;;;;;;5997620;29;94499;-66
2023/05/25 09:54:44;;;;;;;5.18;4.68;;;23.10;86.10;;;;;;6015006;29;94140;-66
2023/05/25 09:57:46;;;;;;;4.95;4.45;;;23.10;86.10;;;;;;6007440;29;93422;-66
2023/05/25 10:00:54;;;;;;;5.53;4.88;;;23.10;86.10;;;;;;6016299;29;94182;-65
2023/05/25 10:03:58;;;;;;;5.78;5.00;;;23.10;86.10;;;;;;6008169;29;92969;-65
2023/05/25 10:07:01;;;;;;;5.15;4.65;;;23.20;86.20;;;;;;6014692;29;96017;-65
2023/05/25 10:10:07;;;;;;;5.13;4.60;;;23.10;86.10;;;;;;6014215;29;94189;-65
2023/05/25 10:13:10;;;;;;;5.18;4.47;;;23.10;86.10;;;;;;6034078;29;94122;-65
2023/05/25 10:16:17;;;;;;;5.07;4.30;;;23.10;86.10;;;;;;5997824;29;93352;-65
2023/05/25 10:19:25;;;;;;;4.80;4.40;;;23.10;86.00;;;;;;6019194;29;94792;-65
2023/05/25 10:22:33;;;;;;;5.07;4.13;;;23.10;85.90;;;;;;6008919;29;94060;-65
2023/05/25 10:25:38;;;;;;;5.05;4.55;;;23.10;86.00;;;;;;6018817;29;94124;-65
2023/05/25 10:28:43;;;;;;;4.85;4.38;;;23.10;86.00;;;;;;6012668;29;93286;-65
2023/05/25 10:31:47;;;;;;;5.78;4.85;;;23.10;85.90;;;;;;6024182;29;94090;-65
2023/05/25 10:34:52;;;;;;;4.93;4.40;;;23.10;85.90;;;;;;6010754;29;94533;-65
2023/05/25 10:37:56;;;;;;;5.00;4.10;;;23.10;85.70;;;;;;5989339;29;94029;-65
2023/05/25 10:40:59;;;;;;;5.00;4.50;;;23.10;85.60;;;;;;5989056;29;96181;-65
2023/05/25 10:44:02;;;;;;;5.78;4.85;;;23.10;85.60;;;;;;6001918;29;94222;-65
2023/05/25 10:47:06;;;;;;;5.75;4.97;;;23.10;85.60;;;;;;6009560;29;95191;-66
2023/05/25 10:50:19;;;;;;;4.85;4.45;;;23.10;85.70;;;;;;6000540;29;94432;-65
2023/05/25 10:53:21;;;;;;;5.18;4.60;;;23.10;85.60;;;;;;6009301;29;94186;-65
2023/05/25 10:56:23;;;;;;;4.95;4.45;;;23.10;85.50;;;;;;6012961;29;94133;-66
2023/05/25 10:59:27;;;;;;;4.72;4.18;;;23.20;85.40;;;;;;6002431;29;93702;-65
2023/05/25 11:02:31;;;;;;;5.38;4.32;;;23.10;85.40;;;;;;6005249;29;94219;-66
2023/05/25 11:05:35;;;;;;;6.65;4.70;;;23.10;85.40;;;;;;6004486;29;94019;-66
2023/05/25 11:08:49;;;;;;;4.68;4.18;;;23.10;85.40;;;;;;5999844;29;95001;-65
2023/05/25 11:12:02;;;;;;;5.10;4.30;;;23.10;85.50;;;;;;6011564;29;94614;-65
2023/05/25 11:15:15;;;;;;;4.65;4.13;;;23.10;85.50;;;;;;6000207;29;94194;-65
2023/05/25 11:18:18;;;;;;;4.60;4.18;;;23.10;85.40;;;;;;5988730;29;94084;-65
2023/05/25 11:21:42;;;;;;;4.93;4.00;;;23.10;85.40;;;;;;6009637;29;94124;-66
2023/05/25 11:24:44;;;;;;;4.93;4.25;;;23.10;85.40;;;;;;5969864;29;1216608;-65
2023/05/25 11:27:47;;;;;;;4.60;4.20;;;23.20;85.40;;;;;;6021147;29;94240;-66
2023/05/25 11:30:49;;;;;;;4.88;4.30;;;23.10;85.20;;;;;;6014687;29;93337;-65
2023/05/25 11:33:57;;;;;;;4.50;4.10;;;23.20;85.20;;;;;;5994295;29;94385;-65
2023/05/25 11:37:01;;;;;;;4.75;4.28;;;23.10;85.20;;;;;;6012285;29;94033;-65
2023/05/25 11:40:08;;;;;;;4.38;3.97;;;23.10;84.90;;;;;;6005938;29;96114;-65
2023/05/25 11:43:11;;;;;;;4.22;3.90;;;23.10;84.90;;;;;;6018226;29;93916;-65
2023/05/25 11:46:13;;;;;;;4.40;4.00;;;23.10;84.90;;;;;;6011596;29;94138;-65
2023/05/25 11:49:17;;;;;;;4.55;4.05;;;23.10;84.90;;;;;;6012093;29;94042;-65
2023/05/25 11:52:20;;;;;;;4.57;4.13;;;23.10;84.90;;;;;;6011925;29;94074;-65
2023/05/25 11:55:23;;;;;;;4.28;3.88;;;23.10;84.70;;;;;;6011944;29;94169;-65
2023/05/25 11:58:25;;;;;;;4.53;4.13;;;23.10;84.70;;;;;;6000654;29;94114;-65
2023/05/25 12:01:30;;;;;;;3.63;3.33;;;23.10;84.70;;;;;;6001792;29;93421;-65
2023/05/25 12:04:34;;;;;;;4.60;4.10;;;23.10;84.70;;;;;;6006568;29;94143;-66
2023/05/25 12:07:43;;;;;;;3.72;3.35;;;23.10;84.70;;;;;;6006193;29;94101;-66
2023/05/25 12:10:51;;;;;;;4.32;3.92;;;23.10;84.70;;;;;;6007671;29;95066;-66
2023/05/25 12:13:54;;;;;;;4.45;3.75;;;23.10;84.70;;;;;;6000235;29;94151;-65
2023/05/25 12:16:57;;;;;;;4.18;3.78;;;23.10;84.60;;;;;;6019539;29;93903;-65
2023/05/25 12:20:00;;;;;;;5.50;4.50;;;23.10;84.60;;;;;;5999311;29;93975;-66
2023/05/25 12:23:02;;;;;;;4.15;3.75;;;23.10;84.50;;;;;;6023997;29;94273;-65
2023/05/25 12:26:10;;;;;;;4.55;4.15;;;23.10;84.70;;;;;;6008823;29;94108;-65
2023/05/25 12:29:12;;;;;;;4.13;3.72;;;23.10;84.70;;;;;;6010933;29;94174;-65
2023/05/25 12:32:14;;;;;;;4.30;3.90;;;23.10;84.70;;;;;;6005751;29;93665;-65
2023/05/25 12:35:18;;;;;;;4.50;3.70;;;23.10;84.80;;;;;;6001569;29;94258;-65
2023/05/25 12:38:21;;;;;;;4.45;4.05;;;23.10;84.70;;;;;;6011092;29;94085;-65
2023/05/25 12:41:23;;;;;;;4.20;3.80;;;23.10;84.70;;;;;;5992523;29;95274;-65
2023/05/25 12:44:30;;;;;;;5.28;4.20;;;23.10;84.70;;;;;;5999894;29;94469;-65
2023/05/25 12:47:32;;;;;;;5.20;4.28;;;23.10;84.70;;;;;;6012958;29;94084;-65
2023/05/25 12:50:35;;;;;;;4.38;3.90;;;23.10;84.70;;;;;;6012215;29;94144;-65
2023/05/25 12:53:47;;;;;;;4.53;4.05;;;23.10;84.70;;;;;;6003895;29;94381;-65
2023/05/25 12:56:55;;;;;;;5.30;3.97;;;23.10;84.60;;;;;;6022505;29;94192;-65
2023/05/25 12:59:57;;;;;;;5.03;3.70;;;23.10;84.70;;;;;;6003235;29;94161;-65
2023/05/25 13:03:00;;;;;;;4.20;3.80;;;23.10;84.80;;;;;;6013922;29;93329;-65
2023/05/25 13:06:03;;;;;;;5.10;4.03;;;23.10;84.70;;;;;;5999056;29;94172;-65
2023/05/25 13:09:05;;;;;;;5.13;4.35;;;23.10;84.80;;;;;;6003784;29;94156;-65
2023/05/25 13:12:08;;;;;;;4.72;4.15;;;23.10;84.80;;;;;;6004222;29;95069;-65
2023/05/25 13:15:10;;;;;;;4.18;3.88;;;23.10;84.80;;;;;;6016899;29;94251;-65
2023/05/25 13:18:12;;;;;;;4.82;3.83;;;23.10;84.80;;;;;;6003393;29;94768;-65
2023/05/25 13:21:16;;;;;;;4.47;4.07;;;23.10;84.90;;;;;;6003010;29;94391;-65
2023/05/25 13:24:18;;;;;;;4.50;4.07;;;23.10;84.90;;;;;;6001807;29;94080;-65
2023/05/25 13:27:20;;;;;;;3.88;3.55;;;23.10;84.80;;;;;;6014152;29;94138;-65
2023/05/25 13:30:22;;;;;;;4.45;3.83;;;23.10;84.70;;;;;;6010191;29;94432;-64
2023/05/25 13:33:24;;;;;;;4.63;4.22;;;23.10;84.90;;;;;;6006699;29;93374;-65
2023/05/25 13:36:28;;;;;;;4.63;4.18;;;23.10;84.90;;;;;;6015046;29;94116;-65
2023/05/25 13:39:30;;;;;;;4.53;4.13;;;23.10;85.00;;;;;;6023975;29;94100;-65
2023/05/25 13:42:32;;;;;;;4.20;3.80;;;23.10;85.00;;;;;;6013105;29;95462;-65
2023/05/25 13:45:34;;;;;;;6.47;4.47;;;23.10;85.00;;;;;;6010960;29;94037;-65
2023/05/25 13:48:35;;;;;;;4.43;4.03;;;23.10;85.10;;;;;;6006451;29;94010;-65
2023/05/25 13:51:40;;;;;;;4.30;3.90;;;23.10;85.10;;;;;;6013848;29;94418;-65
2023/05/25 13:54:42;;;;;;;4.13;3.72;;;23.10;85.10;;;;;;6008110;29;94300;-65
2023/05/25 13:57:44;;;;;;;4.25;3.85;;;23.10;85.10;;;;;;5991296;29;94063;-65
2023/05/25 14:00:46;;;;;;;4.38;3.97;;;23.10;85.00;;;;;;6007067;29;94510;-65
2023/05/25 14:03:48;;;;;;;4.80;4.10;;;23.10;85.00;;;;;;6007195;29;93686;-66
2023/05/25 14:06:51;;;;;;;4.80;4.40;;;23.10;85.10;;;;;;6023441;29;93058;-66
2023/05/25 14:09:53;;;;;;;4.30;3.90;;;23.10;85.20;;;;;;6024858;29;94415;-66
2023/05/25 14:12:55;;;;;;;4.20;3.80;;;23.10;85.20;;;;;;6035626;29;95436;-66
2023/05/25 14:15:57;;;;;;;4.82;3.90;;;23.10;85.20;;;;;;6001148;29;94600;-66
2023/05/25 14:18:59;;;;;;;4.38;3.97;;;23.10;85.20;;;;;;6015593;29;94161;-66
2023/05/25 14:22:03;;;;;;;4.93;4.43;;;23.10;85.30;;;;;;6003196;29;94183;-66
2023/05/25 14:25:06;;;;;;;5.30;4.15;;;23.10;85.30;;;;;;6003863;29;94062;-66
2023/05/25 14:28:08;;;;;;;4.63;4.10;;;23.10;85.30;;;;;;6002815;29;94164;-66
2023/05/25 14:31:11;;;;;;;4.38;3.88;;;23.10;85.40;;;;;;6015669;29;94237;-65
2023/05/25 14:34:13;;;;;;;4.22;3.83;;;23.10;85.40;;;;;;5999488;29;93443;-66
2023/05/25 14:37:16;;;;;;;4.28;3.88;;;23.10;85.50;;;;;;5993105;29;94181;-66
2023/05/25 14:40:18;;;;;;;3.88;3.53;;;23.20;85.50;;;;;;6007997;29;94563;-65
2023/05/25 14:43:20;;;;;;;4.50;4.10;;;23.10;85.50;;;;;;6005857;29;95133;-66
2023/05/25 14:46:22;;;;;;;4.97;4.45;;;23.10;85.60;;;;;;6023486;29;94122;-66
2023/05/25 14:49:26;;;;;;;4.32;3.92;;;23.10;85.60;;;;;;6003173;29;94519;-66
2023/05/25 14:52:29;;;;;;;4.93;4.43;;;23.10;85.70;;;;;;6012941;29;94120;-66
2023/05/25 14:55:31;;;;;;;4.38;3.90;;;23.10;85.80;;;;;;6013530;29;94681;-66
2023/05/25 14:58:33;;;;;;;3.95;3.58;;;23.10;85.90;;;;;;6012716;29;94089;-66
2023/05/25 15:01:35;;;;;;;4.28;3.75;;;23.10;86.00;;;;;;6004351;29;94318;-66
2023/05/25 15:04:37;;;;;;;4.30;3.90;;;23.10;85.90;;;;;;6003837;29;93704;-66
2023/05/25 15:07:41;;;;;;;4.07;3.78;;;23.20;86.10;;;;;;6001173;29;94146;-66
2023/05/25 15:10:43;;;;;;;5.30;4.45;;;23.10;86.10;;;;;;5991829;29;94212;-66
2023/05/25 15:13:45;;;;;;;5.13;4.30;;;23.10;86.10;;;;;;6000311;29;95492;-66
2023/05/25 15:16:47;;;;;;;4.20;3.80;;;23.10;86.10;;;;;;6011979;29;94162;-66
2023/05/25 15:19:49;;;;;;;4.43;4.03;;;23.10;86.10;;;;;;6012169;29;93076;-66
2023/05/25 15:22:52;;;;;;;4.22;3.83;;;23.10;86.10;;;;;;6011012;29;94174;-66
2023/05/25 15:25:56;;;;;;;4.50;4.10;;;23.10;86.20;;;;;;6014649;29;94581;-66
2023/05/25 15:28:57;;;;;;;4.20;3.80;;;23.10;86.20;;;;;;6015229;29;94240;-66
2023/05/25 15:32:00;;;;;;;4.60;4.10;;;23.10;86.20;;;;;;6006498;29;94078;-65
2023/05/25 15:35:02;;;;;;;4.68;4.13;;;23.10;86.30;;;;;;5999986;29;93437;-66
2023/05/25 15:38:05;;;;;;;4.82;4.15;;;23.10;86.30;;;;;;6022707;29;94506;-66
2023/05/25 15:41:07;;;;;;;4.13;3.72;;;23.10;86.30;;;;;;6001335;29;94759;-66
2023/05/25 15:44:11;;;;;;;4.43;4.03;;;23.10;87.10;;;;;;6011400;29;95059;-66
2023/05/25 15:47:13;;;;;;;4.38;3.97;;;23.10;86.20;;;;;;6003607;29;94558;-66
2023/05/25 15:50:15;;;;;;;4.30;3.90;;;23.10;86.10;;;;;;6001288;29;94175;-66
2023/05/25 15:53:18;;;;;;;5.10;4.18;;;23.10;86.10;;;;;;6007988;29;93223;-66